sensor_id;sensor_type;location;lat;lon;timestamp;pressure;altitude;pressure_sealevel;temperature;humidity
17785;BME280;9016;53.582;10.062;2022-12-29T00:01:07;100031.56;;;10.09;100.00
17785;BME280;9016;53.582;10.062;2022-12-29T00:03:36;100027.97;;;10.10;100.00
17785;BME280;9016;53.582;10.062;2022-12-29T00:06:04;100024.78;;;10.18;100.00
17785;BME280;9016;53.582;10.062;2022-12-29T00:08:33;100027.31;;;10.19;100.00
17785;BME280;9016;53.582;10.062;2022-12-29T00:11:08;100014.75;;;10.21;100.00
17785;BME280;9016;53.582;10.062;2022-12-29T00:13:37;100023.91;;;10.30;100.00
17785;BME280;9016;53.582;10.062;2022-12-29T00:16:23;100014.09;;;10.30;100.00
17785;BME280;9016;53.582;10.062;2022-12-29T00:18:51;100009.22;;;10.24;100.00
17785;BME280;9016;53.582;10.062;2022-12-29T00:21:20;100007.38;;;10.37;100.00
17785;BME280;9016;53.582;10.062;2022-12-29T00:24:09;100004.84;;;10.36;100.00
17785;BME280;9016;53.582;10.062;2022-12-29T00:27:03;100004.41;;;10.42;100.00
17785;BME280;9016;53.582;10.062;2022-12-29T00:29:53;99989.72;;;10.36;100.00
17785;BME280;9016;53.582;10.062;2022-12-29T00:32:39;100002.38;;;10.45;100.00
17785;BME280;9016;53.582;10.062;2022-12-29T00:35:27;99990.31;;;10.52;100.00
17785;BME280;9016;53.582;10.062;2022-12-29T00:37:57;99981.06;;;10.45;100.00
17785;BME280;9016;53.582;10.062;2022-12-29T00:40:45;99981.25;;;10.55;100.00
17785;BME280;9016;53.582;10.062;2022-12-29T00:43:30;99990.50;;;10.62;100.00
17785;BME280;9016;53.582;10.062;2022-12-29T00:46:16;99980.72;;;10.62;99.26
17785;BME280;9016;53.582;10.062;2022-12-29T00:48:46;99983.88;;;10.67;99.40
17785;BME280;9016;53.582;10.062;2022-12-29T00:51:31;99988.03;;;10.71;99.75
17785;BME280;9016;53.582;10.062;2022-12-29T00:53:59;99981.22;;;10.67;99.78
17785;BME280;9016;53.582;10.062;2022-12-29T00:56:29;99969.38;;;10.71;99.04
17785;BME280;9016;53.582;10.062;2022-12-29T00:59:00;99986.13;;;10.61;99.46
17785;BME280;9016;53.582;10.062;2022-12-29T01:01:28;99978.56;;;10.67;99.61
17785;BME280;9016;53.582;10.062;2022-12-29T01:03:56;99977.25;;;10.73;99.20
17785;BME280;9016;53.582;10.062;2022-12-29T01:06:30;99971.81;;;10.74;99.30
17785;BME280;9016;53.582;10.062;2022-12-29T01:08:58;99969.47;;;10.70;98.58
17785;BME280;9016;53.582;10.062;2022-12-29T01:11:45;99963.81;;;10.74;99.63
17785;BME280;9016;53.582;10.062;2022-12-29T01:14:13;99967.59;;;10.83;99.35
17785;BME280;9016;53.582;10.062;2022-12-29T01:16:43;99956.94;;;10.83;98.34
17785;BME280;9016;53.582;10.062;2022-12-29T01:19:12;99959.41;;;10.86;98.17
17785;BME280;9016;53.582;10.062;2022-12-29T01:21:40;99963.75;;;10.87;97.90
17785;BME280;9016;53.582;10.062;2022-12-29T01:24:08;99954.03;;;10.98;98.24
17785;BME280;9016;53.582;10.062;2022-12-29T01:26:36;99953.66;;;11.03;97.74
17785;BME280;9016;53.582;10.062;2022-12-29T01:29:06;99948.75;;;11.10;97.29
17785;BME280;9016;53.582;10.062;2022-12-29T01:31:34;99940.44;;;11.02;97.34
17785;BME280;9016;53.582;10.062;2022-12-29T01:34:02;99933.06;;;11.05;96.98
17785;BME280;9016;53.582;10.062;2022-12-29T01:36:31;99931.09;;;10.96;97.43
17785;BME280;9016;53.582;10.062;2022-12-29T01:38:59;99931.56;;;10.90;97.69
17785;BME280;9016;53.582;10.062;2022-12-29T01:41:28;99920.84;;;11.03;98.57
17785;BME280;9016;53.582;10.062;2022-12-29T01:43:57;99927.97;;;11.02;97.86
17785;BME280;9016;53.582;10.062;2022-12-29T01:46:31;99924.00;;;11.08;98.42
17785;BME280;9016;53.582;10.062;2022-12-29T01:49:05;99920.47;;;11.07;98.32
17785;BME280;9016;53.582;10.062;2022-12-29T01:51:39;99928.47;;;11.07;98.47
17785;BME280;9016;53.582;10.062;2022-12-29T01:54:11;99922.69;;;11.13;99.01
17785;BME280;9016;53.582;10.062;2022-12-29T01:56:40;99922.81;;;11.12;98.78
17785;BME280;9016;53.582;10.062;2022-12-29T01:59:12;99920.72;;;11.04;99.50
17785;BME280;9016;53.582;10.062;2022-12-29T02:01:47;99914.06;;;11.10;100.00
17785;BME280;9016;53.582;10.062;2022-12-29T02:04:15;99918.09;;;11.15;100.00
17785;BME280;9016;53.582;10.062;2022-12-29T02:06:47;99921.72;;;11.14;100.00
17785;BME280;9016;53.582;10.062;2022-12-29T02:09:19;99922.84;;;11.23;99.82
17785;BME280;9016;53.582;10.062;2022-12-29T02:11:47;99911.78;;;11.16;99.67
17785;BME280;9016;53.582;10.062;2022-12-29T02:14:15;99914.69;;;11.13;100.00
17785;BME280;9016;53.582;10.062;2022-12-29T02:16:56;99895.41;;;11.10;99.44
17785;BME280;9016;53.582;10.062;2022-12-29T02:20:04;99896.00;;;11.02;100.00
17785;BME280;9016;53.582;10.062;2022-12-29T02:22:45;99894.06;;;11.04;100.00
17785;BME280;9016;53.582;10.062;2022-12-29T02:25:41;99886.94;;;11.05;100.00
17785;BME280;9016;53.582;10.062;2022-12-29T02:28:31;99897.63;;;10.92;100.00
17785;BME280;9016;53.582;10.062;2022-12-29T02:31:15;99895.72;;;10.94;100.00
17785;BME280;9016;53.582;10.062;2022-12-29T02:33:53;99881.44;;;10.95;100.00
17785;BME280;9016;53.582;10.062;2022-12-29T02:36:31;99874.28;;;10.95;100.00
17785;BME280;9016;53.582;10.062;2022-12-29T02:39:08;99876.72;;;10.98;100.00
17785;BME280;9016;53.582;10.062;2022-12-29T02:41:47;99873.03;;;10.88;100.00
17785;BME280;9016;53.582;10.062;2022-12-29T02:44:25;99858.59;;;10.80;100.00
17785;BME280;9016;53.582;10.062;2022-12-29T02:46:59;99862.84;;;10.82;100.00
17785;BME280;9016;53.582;10.062;2022-12-29T02:49:33;99852.44;;;10.90;100.00
17785;BME280;9016;53.582;10.062;2022-12-29T02:52:06;99854.78;;;10.95;100.00
17785;BME280;9016;53.582;10.062;2022-12-29T02:54:37;99857.44;;;10.95;100.00
17785;BME280;9016;53.582;10.062;2022-12-29T02:57:15;99854.78;;;10.95;100.00
17785;BME280;9016;53.582;10.062;2022-12-29T02:59:48;99850.88;;;10.88;100.00
17785;BME280;9016;53.582;10.062;2022-12-29T03:02:30;99856.34;;;10.97;100.00
17785;BME280;9016;53.582;10.062;2022-12-29T03:05:12;99848.13;;;11.01;100.00
17785;BME280;9016;53.582;10.062;2022-12-29T03:07:52;99852.00;;;10.96;100.00
17785;BME280;9016;53.582;10.062;2022-12-29T03:10:30;99852.03;;;11.08;100.00
17785;BME280;9016;53.582;10.062;2022-12-29T03:13:04;99840.63;;;11.06;99.69
17785;BME280;9016;53.582;10.062;2022-12-29T03:16:00;99822.34;;;11.01;100.00
17785;BME280;9016;53.582;10.062;2022-12-29T03:18:40;99835.25;;;10.94;100.00
17785;BME280;9016;53.582;10.062;2022-12-29T03:21:12;99832.34;;;10.97;100.00
17785;BME280;9016;53.582;10.062;2022-12-29T03:23:45;99822.09;;;11.04;100.00
17785;BME280;9016;53.582;10.062;2022-12-29T03:26:17;99823.19;;;11.13;100.00
17785;BME280;9016;53.582;10.062;2022-12-29T03:28:51;99824.19;;;11.23;100.00
17785;BME280;9016;53.582;10.062;2022-12-29T03:31:22;99806.25;;;11.25;99.20
17785;BME280;9016;53.582;10.062;2022-12-29T03:33:53;99797.88;;;11.18;99.01
17785;BME280;9016;53.582;10.062;2022-12-29T03:36:27;99802.13;;;11.21;99.68
17785;BME280;9016;53.582;10.062;2022-12-29T03:38:59;99797.75;;;11.20;98.83
17785;BME280;9016;53.582;10.062;2022-12-29T03:41:31;99803.44;;;11.15;99.32
17785;BME280;9016;53.582;10.062;2022-12-29T03:44:00;99805.69;;;10.97;100.00
17785;BME280;9016;53.582;10.062;2022-12-29T03:46:28;99813.22;;;11.04;100.00
17785;BME280;9016;53.582;10.062;2022-12-29T03:48:58;99808.53;;;11.18;99.98
17785;BME280;9016;53.582;10.062;2022-12-29T03:51:26;99803.72;;;11.23;99.22
17785;BME280;9016;53.582;10.062;2022-12-29T03:53:54;99798.38;;;11.23;99.02
17785;BME280;9016;53.582;10.062;2022-12-29T03:56:25;99803.94;;;11.20;99.27
17785;BME280;9016;53.582;10.062;2022-12-29T03:58:55;99795.44;;;11.15;99.37
17785;BME280;9016;53.582;10.062;2022-12-29T04:01:23;99786.47;;;11.16;99.24
17785;BME280;9016;53.582;10.062;2022-12-29T04:03:51;99785.53;;;11.17;98.93
17785;BME280;9016;53.582;10.062;2022-12-29T04:06:20;99784.19;;;11.23;98.49
17785;BME280;9016;53.582;10.062;2022-12-29T04:08:48;99776.66;;;11.17;98.16
17785;BME280;9016;53.582;10.062;2022-12-29T04:11:16;99776.66;;;11.17;98.80
17785;BME280;9016;53.582;10.062;2022-12-29T04:13:44;99782.84;;;11.17;98.96
17785;BME280;9016;53.582;10.062;2022-12-29T04:16:12;99772.53;;;11.13;98.59
17785;BME280;9016;53.582;10.062;2022-12-29T04:18:42;99767.31;;;11.11;99.00
17785;BME280;9016;53.582;10.062;2022-12-29T04:21:10;99771.59;;;11.14;98.85
17785;BME280;9016;53.582;10.062;2022-12-29T04:23:40;99770.13;;;11.10;99.29
17785;BME280;9016;53.582;10.062;2022-12-29T04:26:08;99771.34;;;11.17;99.25
17785;BME280;9016;53.582;10.062;2022-12-29T04:28:36;99768.31;;;11.10;99.43
17785;BME280;9016;53.582;10.062;2022-12-29T04:31:05;99775.31;;;11.11;99.42
17785;BME280;9016;53.582;10.062;2022-12-29T04:33:33;99769.88;;;11.13;99.65
17785;BME280;9016;53.582;10.062;2022-12-29T04:36:01;99765.41;;;11.13;99.81
17785;BME280;9016;53.582;10.062;2022-12-29T04:38:29;99750.25;;;11.14;100.00
17785;BME280;9016;53.582;10.062;2022-12-29T04:41:00;99751.72;;;11.18;99.72
17785;BME280;9016;53.582;10.062;2022-12-29T04:43:28;99744.91;;;11.14;99.46
17785;BME280;9016;53.582;10.062;2022-12-29T04:45:57;99744.06;;;11.13;99.61
17785;BME280;9016;53.582;10.062;2022-12-29T04:48:25;99749.75;;;11.09;100.00
17785;BME280;9016;53.582;10.062;2022-12-29T04:50:53;99751.31;;;11.11;100.00
17785;BME280;9016;53.582;10.062;2022-12-29T04:53:21;99741.06;;;11.18;100.00
17785;BME280;9016;53.582;10.062;2022-12-29T04:55:49;99734.59;;;11.20;100.00
17785;BME280;9016;53.582;10.062;2022-12-29T04:58:20;99741.66;;;11.21;99.28
17785;BME280;9016;53.582;10.062;2022-12-29T05:00:50;99742.38;;;11.23;99.54
17785;BME280;9016;53.582;10.062;2022-12-29T05:03:18;99722.13;;;11.21;99.87
17785;BME280;9016;53.582;10.062;2022-12-29T05:05:47;99736.66;;;11.17;100.00
17785;BME280;9016;53.582;10.062;2022-12-29T05:08:31;99729.66;;;11.16;100.00
17785;BME280;9016;53.582;10.062;2022-12-29T05:10:59;99731.59;;;11.25;100.00
17785;BME280;9016;53.582;10.062;2022-12-29T05:13:28;99730.50;;;11.27;100.00
17785;BME280;9016;53.582;10.062;2022-12-29T05:15:56;99737.28;;;11.31;100.00
17785;BME280;9016;53.582;10.062;2022-12-29T05:18:24;99734.25;;;11.25;100.00
17785;BME280;9016;53.582;10.062;2022-12-29T05:20:52;99726.88;;;11.28;100.00
17785;BME280;9016;53.582;10.062;2022-12-29T05:23:20;99742.38;;;11.34;100.00
17785;BME280;9016;53.582;10.062;2022-12-29T05:25:48;99731.34;;;11.28;100.00
17785;BME280;9016;53.582;10.062;2022-12-29T05:28:16;99737.06;;;11.34;100.00
17785;BME280;9016;53.582;10.062;2022-12-29T05:30:48;99734.59;;;11.42;100.00
17785;BME280;9016;53.582;10.062;2022-12-29T05:33:17;99725.66;;;11.43;100.00
17785;BME280;9016;53.582;10.062;2022-12-29T05:35:45;99727.94;;;11.48;100.00
17785;BME280;9016;53.582;10.062;2022-12-29T05:38:14;99725.03;;;11.51;100.00
17785;BME280;9016;53.582;10.062;2022-12-29T05:40:44;99727.19;;;11.57;100.00
17785;BME280;9016;53.582;10.062;2022-12-29T05:43:12;99742.47;;;11.55;100.00
17785;BME280;9016;53.582;10.062;2022-12-29T05:45:40;99730.97;;;11.54;100.00
17785;BME280;9016;53.582;10.062;2022-12-29T05:48:09;99732.81;;;11.65;100.00
17785;BME280;9016;53.582;10.062;2022-12-29T05:50:40;99728.31;;;11.54;100.00
17785;BME280;9016;53.582;10.062;2022-12-29T05:53:08;99737.16;;;11.66;100.00
17785;BME280;9016;53.582;10.062;2022-12-29T05:55:36;99728.94;;;11.69;100.00
17785;BME280;9016;53.582;10.062;2022-12-29T05:58:14;99728.53;;;11.73;100.00
17785;BME280;9016;53.582;10.062;2022-12-29T06:00:42;99732.78;;;11.76;100.00
17785;BME280;9016;53.582;10.062;2022-12-29T06:03:12;99732.53;;;11.79;100.00
17785;BME280;9016;53.582;10.062;2022-12-29T06:05:40;99727.44;;;11.87;100.00
17785;BME280;9016;53.582;10.062;2022-12-29T06:08:08;99739.31;;;11.83;99.15
17785;BME280;9016;53.582;10.062;2022-12-29T06:10:36;99736.03;;;11.90;97.97
17785;BME280;9016;53.582;10.062;2022-12-29T06:13:04;99737.13;;;11.88;96.53
17785;BME280;9016;53.582;10.062;2022-12-29T06:15:33;99732.72;;;11.98;96.14
17785;BME280;9016;53.582;10.062;2022-12-29T06:18:01;99731.03;;;11.97;94.97
17785;BME280;9016;53.582;10.062;2022-12-29T06:20:32;99749.84;;;11.95;94.82
17785;BME280;9016;53.582;10.062;2022-12-29T06:23:00;99763.59;;;11.91;95.33
17785;BME280;9016;53.582;10.062;2022-12-29T06:25:28;99746.56;;;11.92;95.88
17785;BME280;9016;53.582;10.062;2022-12-29T06:27:59;99741.97;;;11.94;95.92
17785;BME280;9016;53.582;10.062;2022-12-29T06:30:27;99741.25;;;11.92;95.89
17785;BME280;9016;53.582;10.062;2022-12-29T06:32:57;99742.22;;;11.91;96.08
17785;BME280;9016;53.582;10.062;2022-12-29T06:35:25;99734.34;;;11.89;95.88
17785;BME280;9016;53.582;10.062;2022-12-29T06:37:55;99738.84;;;11.89;95.39
17785;BME280;9016;53.582;10.062;2022-12-29T06:40:22;99748.38;;;11.91;95.83
17785;BME280;9016;53.582;10.062;2022-12-29T06:42:50;99744.75;;;11.92;95.56
17785;BME280;9016;53.582;10.062;2022-12-29T06:45:18;99747.03;;;11.97;96.37
17785;BME280;9016;53.582;10.062;2022-12-29T06:47:46;99739.03;;;11.97;97.56
17785;BME280;9016;53.582;10.062;2022-12-29T06:50:14;99731.06;;;11.86;97.84
17785;BME280;9016;53.582;10.062;2022-12-29T06:52:42;99740.41;;;11.80;97.77
17785;BME280;9016;53.582;10.062;2022-12-29T06:55:12;99721.72;;;11.80;97.99
17785;BME280;9016;53.582;10.062;2022-12-29T06:57:40;99721.16;;;11.66;98.13
17785;BME280;9016;53.582;10.062;2022-12-29T07:00:09;99732.56;;;11.68;98.55
17785;BME280;9016;53.582;10.062;2022-12-29T07:02:37;99728.41;;;11.75;98.36
17785;BME280;9016;53.582;10.062;2022-12-29T07:05:07;99731.69;;;11.78;97.56
17785;BME280;9016;53.582;10.062;2022-12-29T07:07:36;99740.31;;;11.82;97.58
17785;BME280;9016;53.582;10.062;2022-12-29T07:10:05;99727.19;;;11.79;97.52
17785;BME280;9016;53.582;10.062;2022-12-29T07:12:35;99731.34;;;11.72;97.75
17785;BME280;9016;53.582;10.062;2022-12-29T07:15:03;99717.84;;;11.84;98.02
17785;BME280;9016;53.582;10.062;2022-12-29T07:17:31;99723.78;;;11.88;97.95
17785;BME280;9016;53.582;10.062;2022-12-29T07:19:59;99718.34;;;11.89;97.04
17785;BME280;9016;53.582;10.062;2022-12-29T07:22:28;99725.63;;;11.87;97.23
17785;BME280;9016;53.582;10.062;2022-12-29T07:24:55;99729.09;;;11.88;97.40
17785;BME280;9016;53.582;10.062;2022-12-29T07:27:23;99728.88;;;11.91;97.22
17785;BME280;9016;53.582;10.062;2022-12-29T07:29:53;99737.94;;;12.00;96.69
17785;BME280;9016;53.582;10.062;2022-12-29T07:32:21;99743.28;;;12.00;96.75
17785;BME280;9016;53.582;10.062;2022-12-29T07:34:49;99745.47;;;12.06;96.38
17785;BME280;9016;53.582;10.062;2022-12-29T07:37:17;99745.19;;;12.09;95.49
17785;BME280;9016;53.582;10.062;2022-12-29T07:39:45;99735.53;;;11.97;94.53
17785;BME280;9016;53.582;10.062;2022-12-29T07:42:13;99755.69;;;11.89;95.77
17785;BME280;9016;53.582;10.062;2022-12-29T07:44:42;99758.47;;;11.88;94.85
17785;BME280;9016;53.582;10.062;2022-12-29T07:47:12;99750.47;;;11.88;96.15
17785;BME280;9016;53.582;10.062;2022-12-29T07:49:43;99747.03;;;11.97;96.05
17785;BME280;9016;53.582;10.062;2022-12-29T07:52:11;99765.25;;;11.92;95.43
17785;BME280;9016;53.582;10.062;2022-12-29T07:54:39;99761.06;;;11.78;96.42
17785;BME280;9016;53.582;10.062;2022-12-29T07:57:07;99755.34;;;11.72;97.17
17785;BME280;9016;53.582;10.062;2022-12-29T07:59:35;99749.88;;;11.73;97.97
17785;BME280;9016;53.582;10.062;2022-12-29T08:02:03;99743.34;;;11.66;97.52
17785;BME280;9016;53.582;10.062;2022-12-29T08:04:33;99747.59;;;11.69;97.94
17785;BME280;9016;53.582;10.062;2022-12-29T08:07:01;99746.25;;;11.63;98.18
17785;BME280;9016;53.582;10.062;2022-12-29T08:09:28;99759.09;;;11.69;98.04
17785;BME280;9016;53.582;10.062;2022-12-29T08:11:57;99758.28;;;11.69;97.77
17785;BME280;9016;53.582;10.062;2022-12-29T08:14:25;99764.31;;;11.60;97.82
17785;BME280;9016;53.582;10.062;2022-12-29T08:16:53;99770.13;;;11.54;98.98
17785;BME280;9016;53.582;10.062;2022-12-29T08:19:21;99776.81;;;11.48;99.14
17785;BME280;9016;53.582;10.062;2022-12-29T08:21:51;99771.59;;;11.47;99.29
17785;BME280;9016;53.582;10.062;2022-12-29T08:24:20;99781.41;;;11.35;99.41
17785;BME280;9016;53.582;10.062;2022-12-29T08:26:48;99782.41;;;11.45;99.24
17785;BME280;9016;53.582;10.062;2022-12-29T08:29:16;99786.50;;;11.60;98.75
17785;BME280;9016;53.582;10.062;2022-12-29T08:31:44;99796.34;;;11.49;98.21
17785;BME280;9016;53.582;10.062;2022-12-29T08:34:12;99803.63;;;11.58;98.14
17785;BME280;9016;53.582;10.062;2022-12-29T08:36:40;99805.28;;;11.59;97.11
17785;BME280;9016;53.582;10.062;2022-12-29T08:39:09;99802.50;;;11.60;97.11
17785;BME280;9016;53.582;10.062;2022-12-29T08:41:38;99801.28;;;11.64;97.27
17785;BME280;9016;53.582;10.062;2022-12-29T08:44:06;99801.41;;;11.63;96.77
17785;BME280;9016;53.582;10.062;2022-12-29T08:46:34;99805.59;;;11.67;96.98
17785;BME280;9016;53.582;10.062;2022-12-29T08:49:02;99806.19;;;11.70;96.50
17785;BME280;9016;53.582;10.062;2022-12-29T08:51:30;99812.47;;;11.69;96.10
17785;BME280;9016;53.582;10.062;2022-12-29T08:53:58;99793.69;;;11.71;95.56
17785;BME280;9016;53.582;10.062;2022-12-29T08:56:28;99807.13;;;11.69;95.17
17785;BME280;9016;53.582;10.062;2022-12-29T08:58:56;99808.25;;;11.78;95.32
17785;BME280;9016;53.582;10.062;2022-12-29T09:01:24;99806.91;;;11.83;94.09
17785;BME280;9016;53.582;10.062;2022-12-29T09:03:53;99808.13;;;11.79;93.58
17785;BME280;9016;53.582;10.062;2022-12-29T09:06:41;99809.69;;;11.60;93.82
17785;BME280;9016;53.582;10.062;2022-12-29T09:09:09;99813.69;;;11.54;94.42
17785;BME280;9016;53.582;10.062;2022-12-29T09:11:39;99818.94;;;11.67;93.32
17785;BME280;9016;53.582;10.062;2022-12-29T09:14:07;99817.22;;;11.66;93.07
17785;BME280;9016;53.582;10.062;2022-12-29T09:16:35;99821.78;;;11.53;92.68
17785;BME280;9016;53.582;10.062;2022-12-29T09:19:04;99826.91;;;11.56;92.74
17785;BME280;9016;53.582;10.062;2022-12-29T09:21:32;99821.78;;;11.53;91.78
17785;BME280;9016;53.582;10.062;2022-12-29T09:24:00;99830.56;;;11.66;91.53
17785;BME280;9016;53.582;10.062;2022-12-29T09:26:28;99818.06;;;11.66;90.92
17785;BME280;9016;53.582;10.062;2022-12-29T09:28:57;99831.88;;;11.82;90.70
17785;BME280;9016;53.582;10.062;2022-12-29T09:31:25;99832.63;;;11.73;88.96
17785;BME280;9016;53.582;10.062;2022-12-29T09:33:53;99820.72;;;11.66;89.42
17785;BME280;9016;53.582;10.062;2022-12-29T09:36:21;99833.31;;;11.64;88.91
17785;BME280;9016;53.582;10.062;2022-12-29T09:38:49;99835.25;;;11.62;89.19
17785;BME280;9016;53.582;10.062;2022-12-29T09:41:20;99851.06;;;11.65;88.21
17785;BME280;9016;53.582;10.062;2022-12-29T09:44:03;99845.19;;;11.60;87.56
17785;BME280;9016;53.582;10.062;2022-12-29T09:46:37;99856.59;;;11.62;87.72
17785;BME280;9016;53.582;10.062;2022-12-29T09:49:16;99854.09;;;11.72;87.64
17785;BME280;9016;53.582;10.062;2022-12-29T09:51:51;99851.53;;;11.70;87.96
17785;BME280;9016;53.582;10.062;2022-12-29T09:54:26;99858.09;;;11.77;87.26
17785;BME280;9016;53.582;10.062;2022-12-29T09:56:59;99855.06;;;11.93;85.96
17785;BME280;9016;53.582;10.062;2022-12-29T09:59:36;99858.94;;;11.78;85.22
17785;BME280;9016;53.582;10.062;2022-12-29T10:02:16;99857.97;;;11.90;84.01
17785;BME280;9016;53.582;10.062;2022-12-29T10:04:48;99861.97;;;11.95;83.84
17785;BME280;9016;53.582;10.062;2022-12-29T10:07:26;99864.63;;;11.84;83.47
17785;BME280;9016;53.582;10.062;2022-12-29T10:10:10;99861.16;;;11.84;82.41
17785;BME280;9016;53.582;10.062;2022-12-29T10:12:56;99871.81;;;11.95;82.90
17785;BME280;9016;53.582;10.062;2022-12-29T10:15:45;99861.84;;;11.75;82.82
17785;BME280;9016;53.582;10.062;2022-12-29T10:18:31;99872.03;;;11.92;82.30
17785;BME280;9016;53.582;10.062;2022-12-29T10:21:08;99865.25;;;11.88;81.61
17785;BME280;9016;53.582;10.062;2022-12-29T10:23:44;99864.28;;;12.00;80.75
17785;BME280;9016;53.582;10.062;2022-12-29T10:26:16;99852.63;;;12.01;80.72
17785;BME280;9016;53.582;10.062;2022-12-29T10:28:48;99853.47;;;12.02;80.02
17785;BME280;9016;53.582;10.062;2022-12-29T10:31:22;99858.34;;;11.97;79.58
17785;BME280;9016;53.582;10.062;2022-12-29T10:33:53;99862.69;;;11.98;79.39
17785;BME280;9016;53.582;10.062;2022-12-29T10:36:28;99855.28;;;11.90;79.59
17785;BME280;9016;53.582;10.062;2022-12-29T10:39:06;99829.09;;;11.95;79.08
17785;BME280;9016;53.582;10.062;2022-12-29T10:41:41;99860.13;;;12.07;78.71
17785;BME280;9016;53.582;10.062;2022-12-29T10:44:15;99860.00;;;12.20;77.55
17785;BME280;9016;53.582;10.062;2022-12-29T10:46:48;99846.16;;;12.26;76.84
17785;BME280;9016;53.582;10.062;2022-12-29T10:49:19;99850.91;;;12.22;76.96
17785;BME280;9016;53.582;10.062;2022-12-29T10:51:49;99835.47;;;12.26;76.43
17785;BME280;9016;53.582;10.062;2022-12-29T10:54:21;99846.28;;;12.24;76.02
17785;BME280;9016;53.582;10.062;2022-12-29T10:56:54;99847.53;;;12.09;75.83
17785;BME280;9016;53.582;10.062;2022-12-29T10:59:27;99847.41;;;11.88;76.52
17785;BME280;9016;53.582;10.062;2022-12-29T11:02:06;99848.75;;;11.94;76.08
17785;BME280;9016;53.582;10.062;2022-12-29T11:04:48;99845.09;;;12.06;75.33
17785;BME280;9016;53.582;10.062;2022-12-29T11:07:19;99860.41;;;12.04;75.22
17785;BME280;9016;53.582;10.062;2022-12-29T11:09:53;99865.97;;;12.01;75.00
17785;BME280;9016;53.582;10.062;2022-12-29T11:12:23;99855.88;;;12.05;74.62
17785;BME280;9016;53.582;10.062;2022-12-29T11:15:13;99849.47;;;11.96;75.63
17785;BME280;9016;53.582;10.062;2022-12-29T11:17:47;99856.75;;;12.05;74.50
17785;BME280;9016;53.582;10.062;2022-12-29T11:20:32;99850.31;;;12.08;74.94
17785;BME280;9016;53.582;10.062;2022-12-29T11:23:02;99851.66;;;12.02;75.57
17785;BME280;9016;53.582;10.062;2022-12-29T11:25:30;99848.59;;;12.18;75.50
17785;BME280;9016;53.582;10.062;2022-12-29T11:28:01;99866.78;;;12.24;74.64
17785;BME280;9016;53.582;10.062;2022-12-29T11:30:31;99865.00;;;12.02;73.22
17785;BME280;9016;53.582;10.062;2022-12-29T11:33:03;99844.50;;;12.14;73.31
17785;BME280;9016;53.582;10.062;2022-12-29T11:35:35;99848.97;;;12.24;72.68
17785;BME280;9016;53.582;10.062;2022-12-29T11:38:04;99850.63;;;12.25;71.73
17785;BME280;9016;53.582;10.062;2022-12-29T11:40:38;99857.56;;;12.28;72.12
17785;BME280;9016;53.582;10.062;2022-12-29T11:43:15;99850.75;;;12.35;71.88
17785;BME280;9016;53.582;10.062;2022-12-29T11:45:47;99850.50;;;12.38;71.51
17785;BME280;9016;53.582;10.062;2022-12-29T11:48:18;99855.97;;;12.36;70.86
17785;BME280;9016;53.582;10.062;2022-12-29T11:50:51;99846.66;;;12.20;71.30
17785;BME280;9016;53.582;10.062;2022-12-29T11:53:21;99856.47;;;12.30;70.98
17785;BME280;9016;53.582;10.062;2022-12-29T11:55:53;99850.50;;;12.27;72.49
17785;BME280;9016;53.582;10.062;2022-12-29T11:58:28;99860.88;;;12.09;72.22
17785;BME280;9016;53.582;10.062;2022-12-29T12:01:01;99866.94;;;12.00;72.47
17785;BME280;9016;53.582;10.062;2022-12-29T12:03:35;99859.06;;;11.99;73.22
17785;BME280;9016;53.582;10.062;2022-12-29T12:06:11;99873.38;;;12.09;72.83
17785;BME280;9016;53.582;10.062;2022-12-29T12:08:46;99866.56;;;12.16;73.57
17785;BME280;9016;53.582;10.062;2022-12-29T12:11:18;99873.22;;;12.21;73.98
17785;BME280;9016;53.582;10.062;2022-12-29T12:14:00;99881.16;;;12.12;73.87
17785;BME280;9016;53.582;10.062;2022-12-29T12:16:34;99869.50;;;12.02;73.84
17785;BME280;9016;53.582;10.062;2022-12-29T12:19:13;99877.03;;;11.97;74.80
17785;BME280;9016;53.582;10.062;2022-12-29T12:21:47;99873.38;;;11.86;75.61
17785;BME280;9016;53.582;10.062;2022-12-29T12:24:34;99876.03;;;11.98;75.64
17785;BME280;9016;53.582;10.062;2022-12-29T12:27:11;99862.09;;;12.05;75.58
17785;BME280;9016;53.582;10.062;2022-12-29T12:29:45;99872.50;;;11.97;75.83
17785;BME280;9016;53.582;10.062;2022-12-29T12:32:20;99863.06;;;12.04;75.77
17785;BME280;9016;53.582;10.062;2022-12-29T12:34:52;99865.00;;;12.02;76.92
17785;BME280;9016;53.582;10.062;2022-12-29T12:37:33;99857.97;;;11.90;76.72
17785;BME280;9016;53.582;10.062;2022-12-29T12:40:21;99860.16;;;11.96;77.47
17785;BME280;9016;53.582;10.062;2022-12-29T12:43:02;99869.34;;;12.14;77.05
17785;BME280;9016;53.582;10.062;2022-12-29T12:45:45;99863.28;;;12.01;78.02
17785;BME280;9016;53.582;10.062;2022-12-29T12:48:36;99866.97;;;11.89;77.57
17785;BME280;9016;53.582;10.062;2022-12-29T12:51:17;99861.63;;;12.00;77.60
17785;BME280;9016;53.582;10.062;2022-12-29T12:53:59;99864.16;;;12.02;76.75
17785;BME280;9016;53.582;10.062;2022-12-29T12:56:44;99868.91;;;11.87;77.03
17785;BME280;9016;53.582;10.062;2022-12-29T12:59:25;99874.84;;;11.79;77.78
17785;BME280;9016;53.582;10.062;2022-12-29T13:02:01;99875.44;;;11.83;77.40
17785;BME280;9016;53.582;10.062;2022-12-29T13:07:39;99868.41;;;11.82;77.29
17785;BME280;9016;53.582;10.062;2022-12-29T13:10:21;99867.91;;;11.99;77.12
17785;BME280;9016;53.582;10.062;2022-12-29T13:12:55;99876.19;;;11.85;76.36
17785;BME280;9016;53.582;10.062;2022-12-29T13:15:40;99882.25;;;11.87;75.81
17785;BME280;9016;53.582;10.062;2022-12-29T13:18:19;99878.34;;;12.13;75.29
17785;BME280;9016;53.582;10.062;2022-12-29T13:20:53;99891.59;;;12.04;74.96
17785;BME280;9016;53.582;10.062;2022-12-29T13:23:29;99896.53;;;11.97;74.60
17785;BME280;9016;53.582;10.062;2022-12-29T13:26:04;99903.94;;;11.93;75.95
17785;BME280;9016;53.582;10.062;2022-12-29T13:28:43;99898.00;;;12.01;76.97